Warning: Javascript must be enabled to use all the features on this page!


Page Loading - Please Wait...

* We've detected you're using a mobile device. Find our Next Generation Station Page here.
Click to hideNews Bulletins

Peak Streamflow for the Nation

USGS 02339500 CHATTAHOOCHEE RIVER AT WEST POINT, GA

Troup County, Georgia
Hydrologic Unit Code 03130002
Latitude  32°53'11.9", Longitude  85°10'53.7" NAD83
Drainage area 3,550  square miles
Gage datum 551.78 feet above NAVD88
Output formats
Table
Graph
Tab-separated file
peakfq (watstore) format
Reselect output format
Water
Year
Date Gage
Height
(feet)
Stream-
flow
(cfs)
1886 1886-04 25.603,Bd 92,8007,Bd
1897 1897-03-14 14.103 38,5001
1898 1898-09-06 18.203 57,4001
1899 1899-02-28 15.203 43,6001
1900 1900-02-14 19.503 63,3001
1901 1901-05-23 17.203 52,8001
1902 1901-12-30 25.003 88,6001
1903 1903-02-09 20.103 66,1001
1904 1904-08-09 12.603 29,3001
1905 1905-01-13 12.603 29,3001
1906 1906-03-20 18.903 51,800
1907 1907-03-03 12.503 30,500
1908 1908-04-26 16.003 40,800
1909 1909-03-13 19.003 51,500
1910 1910-05-25 11.303 23,100
1911 1911-04-10 10.503 20,700
1912 1912-03-16 22.903,6 73,400
1913 1913-03-15 18.603 46,900
1914 1914-04-17 9.603 18,500
1915 1914-12-06 12.103 25,000
1916 1916-07-10 22.103 64,500
1917 1917-03-28 19.603 51,400
1918 1918-01-12 16.303 34,8001
1919 1918-12-23 21.003 63,7001
1920 1919-12-10 29.253 134,000
1921 1921-02-10 19.303 53,000
1922 1922-03-11 19.603 54,800
1923 1923-02-14 16.703 39,400
1924 1924-04-19 12.603 25,400
1925 1925-01-19 24.603 90,300
1926 1926-04-01 13.70 28,500
1927 1927-02-14 12.20 24,100
1928 1928-04-23 14.30 30,500
1929 1929-03-15 25.40 87,600
1930 1929-11-16 13.60 28,200
1931 1930-11-17 14.40 30,900
1932 1932-02-22 14.20 29,200
1933 1932-12-30 21.70 58,600
1934 1934-03-05 16.50 34,700
1935 1934-10-12 15.20 30,200
1936 1936-04-08 22.90 75,400
1937 1937-01-06 18.40 49,900
1938 1938-04-09 20.20 63,900
1939 1939-03-01 17.60 45,500
1940 1940-07-10 14.10 28,600
1941 1941-07-17 9.10 13,800
1942 1942-03-22 20.20 64,200
1943 1943-03-22 20.20 64,200
1944 1944-04-27 17.70 46,200
1945 1945-04-25 20.40 65,700
1946 1946-01-12 19.60 59,700
1947 1947-01-21 19.60 47,200
1948 1948-07-12 16.20 32,800
1949 1948-11-29 22.40 61,900
1950 1950-03-16 10.40 16,000
1951 1951-04-23 10.70 16,800
1952 1952-03-05 18.70 43,200
1953 1953-01-10 14.20 26,100
1954 1954-01-20 14.10 25,800
1955 1955-02-08 13.50 24,000
1956 1956-03-17 18.20 40,900
1957 1957-04-06 19.50 46,800
1958 1958-02-07 16.50 34,000
1959 1959-06-02 14.50 27,000
1960 1960-04-04 15.10 28,800
1961 1961-02-26 24.90 94,400
1962 1961-12-13 19.79 47,200
1963 1962-11-22 16.77 35,100
1964 1964-04-07 19.98 55,300
1965 1965-01-24 17.85 38,600
1966 1966-02-14 18.23 40,900
1967 1967-08-26 14.59 29,400
1968 1968-04-06 15.37 30,300
1969 1969-04-19 17.91 43,600
1970 1970-03-22 18.63 47,200
1971 1971-03-03 21.29 57,900
1972 1972-01-12 20.90 57,400
1973 1973-02-03 16.81 37,400
1974 1974-01-03 14.46 28,600
1975 1975-04-03 18.88 46,9006
1976 1976-03-19 16.15 34,6006
1977 1977-04-04 13.76 26,3006
1978 1977-11-07 12.97 23,9006
1979 1979-04-16 17.37 41,8006
1980 1980-03-08 12.83 25,5006
1981 1981-02-11 10.13 19,3006
1982 1982-02-03 13.87 28,6006
1983 1983-04-10 12.59 24,6006
1984 1983-12-08 12.75 25,1006
1985 1985-01-17 10.30 18,9006
1986 1985-10-24 9.94 17,8006
1987 1987-01-19 9.75 17,3006
1988 1988-02-18 9.82 17,5006
1989 1989-06-21 13.56 29,0006
1990 1990-03-19 18.30 55,8006
1991 1991-05-12 10.58 21,4006
1992 1991-11-21 10.02 20,1006
1993 1992-11-26 14.47 36,2006
1994 1994-07-05 15.19 39,7006
1995 1995-02-18 9.92 19,8006
1996 1996-03-07 15.19 39,7006
1997 1997-03-02 16.09 44,2006
1998 1998-03-09 17.12 49,6006
1999 1999-03-05 9.41 18,3006
2000 2000-07-13 9.20 17,6006
2001 2001-04-04 13.11 30,4006
2002 2002-05-06 9.04 17,2006
2003 2003-05-08 23.23 75,1006
2004 2004-09-17 10.91 22,8006
2005 2005-07-15 14.72 36,8006
2006 2006-01-20 8.37 15,1006
2007 2006-11-16 6.782 10,5006
2008 2008-08-27 8.90 16,6006
2009 2009-09-25 18.92 54,7006
2010 2009-10-14 13.32 31,3006
2011 2011-05-13 9.87 19,6006
2012 2012-04-26 9.96 19,9006
2013 2013-05-07 12.26 27,3006
2014 2014-04-08 10.24 20,7006
2015 2015-01-05 8.96 16,7006
2016 2015-12-29 15.19 38,7006
2017 2017-04-07 12.44 28,0006
2018 2018-08-03 10.05 20,1006
2019 2018-12-31 15.38 39,4006
2020 2020-04-21 13.70 32,7006
2021 2021-05-06 15.77 41,0006
2022 2022-04-07 13.45 31,8006
2023 2023-03-27 17.24 47,2006
?
  Peak Gage-Height Qualification Codes.
?
  Peak Streamflow Qualification Codes.